sensor_id;sensor_type;location;lat;lon;timestamp;temperature;humidity
50556;DHT22;36508;52.512;13.450;2022-07-29T00:00:14;19.50;96.40
50556;DHT22;36508;52.512;13.450;2022-07-29T00:02:40;19.30;96.60
50556;DHT22;36508;52.512;13.450;2022-07-29T00:05:08;19.30;96.90
50556;DHT22;36508;52.512;13.450;2022-07-29T00:07:34;19.20;97.10
50556;DHT22;36508;52.512;13.450;2022-07-29T00:09:59;19.10;97.50
50556;DHT22;36508;52.512;13.450;2022-07-29T00:12:25;19.10;97.70
50556;DHT22;36508;52.512;13.450;2022-07-29T00:14:55;19.20;97.90
50556;DHT22;36508;52.512;13.450;2022-07-29T00:17:23;19.10;98.10
50556;DHT22;36508;52.512;13.450;2022-07-29T00:19:48;19.00;98.50
50556;DHT22;36508;52.512;13.450;2022-07-29T00:22:14;19.00;98.50
50556;DHT22;36508;52.512;13.450;2022-07-29T00:24:40;19.00;98.80
50556;DHT22;36508;52.512;13.450;2022-07-29T00:27:06;18.90;99.10
50556;DHT22;36508;52.512;13.450;2022-07-29T00:29:31;18.90;99.70
50556;DHT22;36508;52.512;13.450;2022-07-29T00:31:57;18.90;99.50
50556;DHT22;36508;52.512;13.450;2022-07-29T00:34:23;19.00;99.80
50556;DHT22;36508;52.512;13.450;2022-07-29T00:37:07;18.90;99.90
50556;DHT22;36508;52.512;13.450;2022-07-29T00:39:33;18.90;99.90
50556;DHT22;36508;52.512;13.450;2022-07-29T00:41:58;18.90;99.90
50556;DHT22;36508;52.512;13.450;2022-07-29T00:44:24;18.70;99.90
50556;DHT22;36508;52.512;13.450;2022-07-29T00:46:56;18.80;99.90
50556;DHT22;36508;52.512;13.450;2022-07-29T00:49:22;18.80;99.90
50556;DHT22;36508;52.512;13.450;2022-07-29T00:51:48;18.70;99.90
50556;DHT22;36508;52.512;13.450;2022-07-29T00:54:14;18.70;99.90
50556;DHT22;36508;52.512;13.450;2022-07-29T00:56:40;18.70;99.90
50556;DHT22;36508;52.512;13.450;2022-07-29T00:59:06;18.60;99.90
50556;DHT22;36508;52.512;13.450;2022-07-29T01:01:31;18.70;99.90
50556;DHT22;36508;52.512;13.450;2022-07-29T01:03:57;18.70;99.90
50556;DHT22;36508;52.512;13.450;2022-07-29T01:06:23;18.70;99.90
50556;DHT22;36508;52.512;13.450;2022-07-29T01:08:50;18.70;99.90
50556;DHT22;36508;52.512;13.450;2022-07-29T01:11:17;18.60;99.90
50556;DHT22;36508;52.512;13.450;2022-07-29T01:13:44;18.70;99.90
50556;DHT22;36508;52.512;13.450;2022-07-29T01:16:21;18.70;99.90
50556;DHT22;36508;52.512;13.450;2022-07-29T01:18:52;18.60;99.90
50556;DHT22;36508;52.512;13.450;2022-07-29T01:24:14;18.60;99.90
50556;DHT22;36508;52.512;13.450;2022-07-29T01:26:54;18.60;99.90
50556;DHT22;36508;52.512;13.450;2022-07-29T01:32:10;18.50;99.90
50556;DHT22;36508;52.512;13.450;2022-07-29T01:37:37;18.40;99.90
50556;DHT22;36508;52.512;13.450;2022-07-29T01:40:08;18.30;99.90
50556;DHT22;36508;52.512;13.450;2022-07-29T01:42:43;18.30;99.90
50556;DHT22;36508;52.512;13.450;2022-07-29T01:45:17;18.40;99.90
50556;DHT22;36508;52.512;13.450;2022-07-29T01:47:50;18.40;99.90
50556;DHT22;36508;52.512;13.450;2022-07-29T01:50:18;18.40;99.90
50556;DHT22;36508;52.512;13.450;2022-07-29T01:52:54;18.40;99.90
50556;DHT22;36508;52.512;13.450;2022-07-29T01:55:27;18.40;99.90
50556;DHT22;36508;52.512;13.450;2022-07-29T01:57:54;18.30;99.90
50556;DHT22;36508;52.512;13.450;2022-07-29T02:00:22;18.20;99.90
50556;DHT22;36508;52.512;13.450;2022-07-29T02:02:49;18.30;99.90
50556;DHT22;36508;52.512;13.450;2022-07-29T02:05:18;18.20;99.90
50556;DHT22;36508;52.512;13.450;2022-07-29T02:07:46;18.20;99.90
50556;DHT22;36508;52.512;13.450;2022-07-29T02:10:13;18.20;99.90
50556;DHT22;36508;52.512;13.450;2022-07-29T02:12:42;18.20;99.90
50556;DHT22;36508;52.512;13.450;2022-07-29T02:15:09;18.20;99.90
50556;DHT22;36508;52.512;13.450;2022-07-29T02:17:45;18.30;99.90
50556;DHT22;36508;52.512;13.450;2022-07-29T02:20:14;18.30;99.90
50556;DHT22;36508;52.512;13.450;2022-07-29T02:22:41;18.20;99.90
50556;DHT22;36508;52.512;13.450;2022-07-29T02:25:08;18.10;99.90
50556;DHT22;36508;52.512;13.450;2022-07-29T02:27:35;18.10;99.90
50556;DHT22;36508;52.512;13.450;2022-07-29T02:30:04;18.20;99.90
50556;DHT22;36508;52.512;13.450;2022-07-29T02:32:31;18.20;99.90
50556;DHT22;36508;52.512;13.450;2022-07-29T02:34:58;18.10;99.90
50556;DHT22;36508;52.512;13.450;2022-07-29T02:37:26;18.10;99.90
50556;DHT22;36508;52.512;13.450;2022-07-29T02:39:53;18.00;99.90
50556;DHT22;36508;52.512;13.450;2022-07-29T02:42:21;18.10;99.90
50556;DHT22;36508;52.512;13.450;2022-07-29T02:44:48;18.10;99.90
50556;DHT22;36508;52.512;13.450;2022-07-29T02:47:41;18.10;99.90
50556;DHT22;36508;52.512;13.450;2022-07-29T02:50:27;18.10;99.90
50556;DHT22;36508;52.512;13.450;2022-07-29T02:53:15;18.10;99.90
50556;DHT22;36508;52.512;13.450;2022-07-29T02:55:56;18.20;99.90
50556;DHT22;36508;52.512;13.450;2022-07-29T02:58:49;18.10;99.90
50556;DHT22;36508;52.512;13.450;2022-07-29T03:01:23;18.10;99.90
50556;DHT22;36508;52.512;13.450;2022-07-29T03:03:52;18.10;99.90
50556;DHT22;36508;52.512;13.450;2022-07-29T03:06:21;18.00;99.90
50556;DHT22;36508;52.512;13.450;2022-07-29T03:08:48;18.10;99.90
50556;DHT22;36508;52.512;13.450;2022-07-29T03:11:15;18.10;99.90
50556;DHT22;36508;52.512;13.450;2022-07-29T03:13:42;18.10;99.90
50556;DHT22;36508;52.512;13.450;2022-07-29T03:16:10;18.10;99.90
50556;DHT22;36508;52.512;13.450;2022-07-29T03:18:36;18.00;99.90
50556;DHT22;36508;52.512;13.450;2022-07-29T03:21:03;18.10;99.90
50556;DHT22;36508;52.512;13.450;2022-07-29T03:23:29;18.10;99.90
50556;DHT22;36508;52.512;13.450;2022-07-29T03:25:56;18.10;99.90
50556;DHT22;36508;52.512;13.450;2022-07-29T03:28:22;18.10;99.90
50556;DHT22;36508;52.512;13.450;2022-07-29T03:30:49;18.10;99.90
50556;DHT22;36508;52.512;13.450;2022-07-29T03:33:15;18.10;99.90
50556;DHT22;36508;52.512;13.450;2022-07-29T03:35:41;18.00;99.90
50556;DHT22;36508;52.512;13.450;2022-07-29T03:38:07;18.10;99.90
50556;DHT22;36508;52.512;13.450;2022-07-29T03:40:35;18.00;99.90
50556;DHT22;36508;52.512;13.450;2022-07-29T03:43:04;18.10;99.90
50556;DHT22;36508;52.512;13.450;2022-07-29T03:45:32;18.00;99.90
50556;DHT22;36508;52.512;13.450;2022-07-29T03:48:09;18.00;99.90
50556;DHT22;36508;52.512;13.450;2022-07-29T03:50:35;17.90;99.90
50556;DHT22;36508;52.512;13.450;2022-07-29T03:53:02;17.90;99.90
50556;DHT22;36508;52.512;13.450;2022-07-29T03:55:29;17.90;99.90
50556;DHT22;36508;52.512;13.450;2022-07-29T03:57:57;18.00;99.90
50556;DHT22;36508;52.512;13.450;2022-07-29T04:00:26;17.90;99.90
50556;DHT22;36508;52.512;13.450;2022-07-29T04:02:52;18.00;99.90
50556;DHT22;36508;52.512;13.450;2022-07-29T04:05:18;18.00;99.90
50556;DHT22;36508;52.512;13.450;2022-07-29T04:07:48;18.10;99.90
50556;DHT22;36508;52.512;13.450;2022-07-29T04:10:14;18.00;99.90
50556;DHT22;36508;52.512;13.450;2022-07-29T04:12:44;18.10;99.90
50556;DHT22;36508;52.512;13.450;2022-07-29T04:15:10;18.00;99.90
50556;DHT22;36508;52.512;13.450;2022-07-29T04:17:36;18.00;99.90
50556;DHT22;36508;52.512;13.450;2022-07-29T04:20:02;18.10;99.90
50556;DHT22;36508;52.512;13.450;2022-07-29T04:22:28;18.10;99.90
50556;DHT22;36508;52.512;13.450;2022-07-29T04:24:54;18.10;99.90
50556;DHT22;36508;52.512;13.450;2022-07-29T04:27:20;18.10;99.90
50556;DHT22;36508;52.512;13.450;2022-07-29T04:29:45;18.10;99.90
50556;DHT22;36508;52.512;13.450;2022-07-29T04:32:11;18.10;99.90
50556;DHT22;36508;52.512;13.450;2022-07-29T04:34:37;18.00;99.90
50556;DHT22;36508;52.512;13.450;2022-07-29T04:37:03;18.10;99.90
50556;DHT22;36508;52.512;13.450;2022-07-29T04:39:28;18.20;99.90
50556;DHT22;36508;52.512;13.450;2022-07-29T04:41:55;18.20;99.90
50556;DHT22;36508;52.512;13.450;2022-07-29T04:44:22;18.20;99.90
50556;DHT22;36508;52.512;13.450;2022-07-29T04:46:47;18.30;99.90
50556;DHT22;36508;52.512;13.450;2022-07-29T04:49:13;18.40;99.90
50556;DHT22;36508;52.512;13.450;2022-07-29T04:51:39;18.50;99.90
50556;DHT22;36508;52.512;13.450;2022-07-29T04:54:05;18.60;99.90
50556;DHT22;36508;52.512;13.450;2022-07-29T04:56:31;18.60;99.90
50556;DHT22;36508;52.512;13.450;2022-07-29T04:58:57;18.50;99.90
50556;DHT22;36508;52.512;13.450;2022-07-29T05:01:22;18.50;99.90
50556;DHT22;36508;52.512;13.450;2022-07-29T05:03:48;18.50;99.90
50556;DHT22;36508;52.512;13.450;2022-07-29T05:06:14;18.60;99.90
50556;DHT22;36508;52.512;13.450;2022-07-29T05:08:40;18.60;99.90
50556;DHT22;36508;52.512;13.450;2022-07-29T05:11:06;18.60;99.90
50556;DHT22;36508;52.512;13.450;2022-07-29T05:13:31;18.70;99.90
50556;DHT22;36508;52.512;13.450;2022-07-29T05:15:57;18.80;99.90
50556;DHT22;36508;52.512;13.450;2022-07-29T05:18:25;18.80;99.90
50556;DHT22;36508;52.512;13.450;2022-07-29T05:20:51;18.80;99.90
50556;DHT22;36508;52.512;13.450;2022-07-29T05:23:17;18.90;99.90
50556;DHT22;36508;52.512;13.450;2022-07-29T05:25:43;19.00;99.90
50556;DHT22;36508;52.512;13.450;2022-07-29T05:28:09;18.90;99.90
50556;DHT22;36508;52.512;13.450;2022-07-29T05:30:35;18.80;99.90
50556;DHT22;36508;52.512;13.450;2022-07-29T05:33:01;18.90;99.90
50556;DHT22;36508;52.512;13.450;2022-07-29T05:35:26;18.90;99.90
50556;DHT22;36508;52.512;13.450;2022-07-29T05:37:52;19.00;99.90
50556;DHT22;36508;52.512;13.450;2022-07-29T05:40:18;19.10;99.90
50556;DHT22;36508;52.512;13.450;2022-07-29T05:42:44;19.10;99.90
50556;DHT22;36508;52.512;13.450;2022-07-29T05:45:10;19.20;99.90
50556;DHT22;36508;52.512;13.450;2022-07-29T05:47:36;19.10;99.90
50556;DHT22;36508;52.512;13.450;2022-07-29T05:50:02;19.10;99.90
50556;DHT22;36508;52.512;13.450;2022-07-29T05:52:28;19.20;99.90
50556;DHT22;36508;52.512;13.450;2022-07-29T05:54:53;19.30;99.90
50556;DHT22;36508;52.512;13.450;2022-07-29T05:57:22;19.30;99.90
50556;DHT22;36508;52.512;13.450;2022-07-29T05:59:49;19.20;99.90
50556;DHT22;36508;52.512;13.450;2022-07-29T06:02:15;19.30;99.90
50556;DHT22;36508;52.512;13.450;2022-07-29T06:04:42;19.40;99.90
50556;DHT22;36508;52.512;13.450;2022-07-29T06:07:07;19.50;99.90
50556;DHT22;36508;52.512;13.450;2022-07-29T06:09:34;19.60;99.90
50556;DHT22;36508;52.512;13.450;2022-07-29T06:12:00;19.70;99.90
50556;DHT22;36508;52.512;13.450;2022-07-29T06:14:26;19.70;99.90
50556;DHT22;36508;52.512;13.450;2022-07-29T06:16:53;19.70;99.90
50556;DHT22;36508;52.512;13.450;2022-07-29T06:19:20;19.80;99.90
50556;DHT22;36508;52.512;13.450;2022-07-29T06:21:46;20.00;99.90
50556;DHT22;36508;52.512;13.450;2022-07-29T06:24:13;20.10;99.90
50556;DHT22;36508;52.512;13.450;2022-07-29T06:26:40;20.10;99.90
50556;DHT22;36508;52.512;13.450;2022-07-29T06:29:07;20.20;99.90
50556;DHT22;36508;52.512;13.450;2022-07-29T06:31:34;20.30;99.90
50556;DHT22;36508;52.512;13.450;2022-07-29T06:33:59;20.50;99.90
50556;DHT22;36508;52.512;13.450;2022-07-29T06:36:25;20.50;99.90
50556;DHT22;36508;52.512;13.450;2022-07-29T06:38:51;20.60;99.90
50556;DHT22;36508;52.512;13.450;2022-07-29T06:41:17;20.70;99.90
50556;DHT22;36508;52.512;13.450;2022-07-29T06:43:44;20.60;99.90
50556;DHT22;36508;52.512;13.450;2022-07-29T06:46:12;20.70;99.90
50556;DHT22;36508;52.512;13.450;2022-07-29T06:48:39;20.70;99.90
50556;DHT22;36508;52.512;13.450;2022-07-29T06:51:06;20.70;99.90
50556;DHT22;36508;52.512;13.450;2022-07-29T06:53:33;20.80;99.90
50556;DHT22;36508;52.512;13.450;2022-07-29T06:56:00;20.90;99.90
50556;DHT22;36508;52.512;13.450;2022-07-29T06:58:27;21.00;99.90
50556;DHT22;36508;52.512;13.450;2022-07-29T07:00:53;21.10;99.90
50556;DHT22;36508;52.512;13.450;2022-07-29T07:03:20;21.10;99.90
50556;DHT22;36508;52.512;13.450;2022-07-29T07:05:46;21.10;99.90
50556;DHT22;36508;52.512;13.450;2022-07-29T07:08:12;21.10;99.90
50556;DHT22;36508;52.512;13.450;2022-07-29T07:10:39;21.10;99.90
50556;DHT22;36508;52.512;13.450;2022-07-29T07:13:05;21.20;99.90
50556;DHT22;36508;52.512;13.450;2022-07-29T07:15:32;21.30;99.90
50556;DHT22;36508;52.512;13.450;2022-07-29T07:17:57;21.30;99.90
50556;DHT22;36508;52.512;13.450;2022-07-29T07:20:24;21.30;99.90
50556;DHT22;36508;52.512;13.450;2022-07-29T07:22:50;21.30;99.90
50556;DHT22;36508;52.512;13.450;2022-07-29T07:25:16;21.20;99.90
50556;DHT22;36508;52.512;13.450;2022-07-29T07:27:46;21.20;99.90
50556;DHT22;36508;52.512;13.450;2022-07-29T07:30:12;20.90;99.90
50556;DHT22;36508;52.512;13.450;2022-07-29T07:32:38;20.90;99.90
50556;DHT22;36508;52.512;13.450;2022-07-29T07:35:06;20.90;99.90
50556;DHT22;36508;52.512;13.450;2022-07-29T07:37:33;21.10;99.90
50556;DHT22;36508;52.512;13.450;2022-07-29T07:39:59;21.20;99.90
50556;DHT22;36508;52.512;13.450;2022-07-29T07:42:25;21.40;99.90
50556;DHT22;36508;52.512;13.450;2022-07-29T07:44:50;21.50;99.90
50556;DHT22;36508;52.512;13.450;2022-07-29T07:47:16;21.50;99.90
50556;DHT22;36508;52.512;13.450;2022-07-29T07:49:46;21.50;99.90
50556;DHT22;36508;52.512;13.450;2022-07-29T07:52:13;21.70;99.90
50556;DHT22;36508;52.512;13.450;2022-07-29T07:54:38;21.80;99.90
50556;DHT22;36508;52.512;13.450;2022-07-29T07:57:04;22.00;99.90
50556;DHT22;36508;52.512;13.450;2022-07-29T07:59:30;21.90;99.90
50556;DHT22;36508;52.512;13.450;2022-07-29T08:01:55;21.80;99.90
50556;DHT22;36508;52.512;13.450;2022-07-29T08:04:21;21.90;99.90
50556;DHT22;36508;52.512;13.450;2022-07-29T08:06:47;22.00;99.90
50556;DHT22;36508;52.512;13.450;2022-07-29T08:09:15;22.10;99.90
50556;DHT22;36508;52.512;13.450;2022-07-29T08:11:40;22.30;99.90
50556;DHT22;36508;52.512;13.450;2022-07-29T08:14:06;22.60;99.90
50556;DHT22;36508;52.512;13.450;2022-07-29T08:16:32;22.70;99.90
50556;DHT22;36508;52.512;13.450;2022-07-29T08:18:57;22.80;99.90
50556;DHT22;36508;52.512;13.450;2022-07-29T08:21:23;23.00;99.90
50556;DHT22;36508;52.512;13.450;2022-07-29T08:23:50;23.20;99.90
50556;DHT22;36508;52.512;13.450;2022-07-29T08:26:19;23.30;99.90
50556;DHT22;36508;52.512;13.450;2022-07-29T08:28:45;23.30;99.90
50556;DHT22;36508;52.512;13.450;2022-07-29T08:31:14;23.30;99.90
50556;DHT22;36508;52.512;13.450;2022-07-29T08:33:40;23.30;99.90
50556;DHT22;36508;52.512;13.450;2022-07-29T08:36:06;23.40;99.90
50556;DHT22;36508;52.512;13.450;2022-07-29T08:38:32;23.40;99.90
50556;DHT22;36508;52.512;13.450;2022-07-29T08:41:00;23.50;99.90
50556;DHT22;36508;52.512;13.450;2022-07-29T08:43:27;23.50;99.90
50556;DHT22;36508;52.512;13.450;2022-07-29T08:45:53;23.60;99.90
50556;DHT22;36508;52.512;13.450;2022-07-29T08:48:21;23.60;99.90
50556;DHT22;36508;52.512;13.450;2022-07-29T08:50:50;23.60;99.90
50556;DHT22;36508;52.512;13.450;2022-07-29T08:53:17;23.70;99.90
50556;DHT22;36508;52.512;13.450;2022-07-29T08:55:48;23.80;99.90
50556;DHT22;36508;52.512;13.450;2022-07-29T08:58:15;23.90;99.90
50556;DHT22;36508;52.512;13.450;2022-07-29T09:00:45;24.10;99.90
50556;DHT22;36508;52.512;13.450;2022-07-29T09:03:17;24.20;99.90
50556;DHT22;36508;52.512;13.450;2022-07-29T09:05:45;24.30;99.90
50556;DHT22;36508;52.512;13.450;2022-07-29T09:08:12;24.40;99.70
50556;DHT22;36508;52.512;13.450;2022-07-29T09:10:39;24.50;99.60
50556;DHT22;36508;52.512;13.450;2022-07-29T09:13:05;24.50;99.50
50556;DHT22;36508;52.512;13.450;2022-07-29T09:15:31;24.50;98.50
50556;DHT22;36508;52.512;13.450;2022-07-29T09:17:57;24.30;98.20
50556;DHT22;36508;52.512;13.450;2022-07-29T09:20:24;24.30;98.60
50556;DHT22;36508;52.512;13.450;2022-07-29T09:22:52;24.40;98.60
50556;DHT22;36508;52.512;13.450;2022-07-29T09:25:37;24.50;97.80
50556;DHT22;36508;52.512;13.450;2022-07-29T09:30:33;24.70;97.40
50556;DHT22;36508;52.512;13.450;2022-07-29T09:33:01;24.80;97.30
50556;DHT22;36508;52.512;13.450;2022-07-29T09:35:29;25.00;96.90
50556;DHT22;36508;52.512;13.450;2022-07-29T09:37:56;25.30;96.90
50556;DHT22;36508;52.512;13.450;2022-07-29T09:40:24;25.40;95.80
50556;DHT22;36508;52.512;13.450;2022-07-29T09:42:51;25.60;95.60
50556;DHT22;36508;52.512;13.450;2022-07-29T09:45:33;25.60;95.20
50556;DHT22;36508;52.512;13.450;2022-07-29T09:48:12;25.60;94.70
50556;DHT22;36508;52.512;13.450;2022-07-29T09:50:40;25.70;94.40
50556;DHT22;36508;52.512;13.450;2022-07-29T09:53:08;25.80;94.30
50556;DHT22;36508;52.512;13.450;2022-07-29T09:55:49;26.00;94.30
50556;DHT22;36508;52.512;13.450;2022-07-29T09:58:19;26.40;94.20
50556;DHT22;36508;52.512;13.450;2022-07-29T10:00:47;26.50;93.50
50556;DHT22;36508;52.512;13.450;2022-07-29T10:03:14;26.60;93.40
50556;DHT22;36508;52.512;13.450;2022-07-29T10:05:41;26.70;91.70
50556;DHT22;36508;52.512;13.450;2022-07-29T10:08:08;26.50;92.30
50556;DHT22;36508;52.512;13.450;2022-07-29T10:10:37;26.60;91.80
50556;DHT22;36508;52.512;13.450;2022-07-29T10:13:09;26.80;91.50
50556;DHT22;36508;52.512;13.450;2022-07-29T10:15:37;27.10;90.60
50556;DHT22;36508;52.512;13.450;2022-07-29T10:18:04;27.00;89.50
50556;DHT22;36508;52.512;13.450;2022-07-29T10:20:30;27.20;88.20
50556;DHT22;36508;52.512;13.450;2022-07-29T10:22:56;27.60;88.30
50556;DHT22;36508;52.512;13.450;2022-07-29T10:25:23;27.40;86.50
50556;DHT22;36508;52.512;13.450;2022-07-29T10:27:50;27.40;85.80
50556;DHT22;36508;52.512;13.450;2022-07-29T10:30:20;27.80;85.10
50556;DHT22;36508;52.512;13.450;2022-07-29T10:35:34;28.10;82.60
50556;DHT22;36508;52.512;13.450;2022-07-29T10:38:26;27.80;82.60
50556;DHT22;36508;52.512;13.450;2022-07-29T10:43:46;27.80;80.90
50556;DHT22;36508;52.512;13.450;2022-07-29T10:46:14;28.00;80.30
50556;DHT22;36508;52.512;13.450;2022-07-29T10:49:15;29.50;78.80
50556;DHT22;36508;52.512;13.450;2022-07-29T10:54:37;32.50;70.60
50556;DHT22;36508;52.512;13.450;2022-07-29T10:59:42;34.70;64.00
50556;DHT22;36508;52.512;13.450;2022-07-29T11:07:37;37.50;55.80
50556;DHT22;36508;52.512;13.450;2022-07-29T11:15:08;34.00;56.00
50556;DHT22;36508;52.512;13.450;2022-07-29T11:20:42;31.90;58.30
50556;DHT22;36508;52.512;13.450;2022-07-29T11:23:20;31.30;58.90
50556;DHT22;36508;52.512;13.450;2022-07-29T11:31:41;29.90;63.60
50556;DHT22;36508;52.512;13.450;2022-07-29T11:39:45;36.10;56.20
50556;DHT22;36508;52.512;13.450;2022-07-29T11:45:09;39.30;50.70
50556;DHT22;36508;52.512;13.450;2022-07-29T11:47:40;37.80;50.70
50556;DHT22;36508;52.512;13.450;2022-07-29T11:50:10;38.10;51.70
50556;DHT22;36508;52.512;13.450;2022-07-29T11:52:41;39.20;50.60
50556;DHT22;36508;52.512;13.450;2022-07-29T11:55:18;39.60;49.60
50556;DHT22;36508;52.512;13.450;2022-07-29T11:57:52;39.70;48.80
50556;DHT22;36508;52.512;13.450;2022-07-29T12:00:36;39.90;48.70
50556;DHT22;36508;52.512;13.450;2022-07-29T12:03:08;39.60;47.90
50556;DHT22;36508;52.512;13.450;2022-07-29T12:05:43;38.50;48.40
50556;DHT22;36508;52.512;13.450;2022-07-29T12:08:18;37.50;50.20
50556;DHT22;36508;52.512;13.450;2022-07-29T12:10:46;36.10;51.50
50556;DHT22;36508;52.512;13.450;2022-07-29T12:13:13;35.50;52.40
50556;DHT22;36508;52.512;13.450;2022-07-29T12:15:40;34.40;53.70
50556;DHT22;36508;52.512;13.450;2022-07-29T12:18:25;33.20;55.10
50556;DHT22;36508;52.512;13.450;2022-07-29T12:21:01;32.20;57.00
50556;DHT22;36508;52.512;13.450;2022-07-29T12:23:32;31.80;58.30
50556;DHT22;36508;52.512;13.450;2022-07-29T12:25:58;31.60;58.80
50556;DHT22;36508;52.512;13.450;2022-07-29T12:28:25;31.40;59.40
50556;DHT22;36508;52.512;13.450;2022-07-29T12:30:51;31.10;60.00
50556;DHT22;36508;52.512;13.450;2022-07-29T12:33:20;31.00;61.70
50556;DHT22;36508;52.512;13.450;2022-07-29T12:35:48;30.70;60.90
50556;DHT22;36508;52.512;13.450;2022-07-29T12:38:16;30.50;61.60
50556;DHT22;36508;52.512;13.450;2022-07-29T12:40:43;30.40;62.30
50556;DHT22;36508;52.512;13.450;2022-07-29T12:43:16;30.50;62.20
50556;DHT22;36508;52.512;13.450;2022-07-29T12:45:50;30.60;61.40
50556;DHT22;36508;52.512;13.450;2022-07-29T12:48:22;30.70;60.80
50556;DHT22;36508;52.512;13.450;2022-07-29T12:51:02;30.60;61.40
50556;DHT22;36508;52.512;13.450;2022-07-29T12:53:28;30.90;61.60
50556;DHT22;36508;52.512;13.450;2022-07-29T12:55:56;31.00;61.80
50556;DHT22;36508;52.512;13.450;2022-07-29T12:58:41;30.90;61.90
50556;DHT22;36508;52.512;13.450;2022-07-29T13:01:11;30.90;60.00
50556;DHT22;36508;52.512;13.450;2022-07-29T13:03:55;30.90;59.40
50556;DHT22;36508;52.512;13.450;2022-07-29T13:06:43;30.70;61.00
50556;DHT22;36508;52.512;13.450;2022-07-29T13:09:15;30.60;63.00
50556;DHT22;36508;52.512;13.450;2022-07-29T13:14:13;30.50;63.60
50556;DHT22;36508;52.512;13.450;2022-07-29T13:17:08;30.40;63.00
50556;DHT22;36508;52.512;13.450;2022-07-29T13:19:40;30.20;62.00
50556;DHT22;36508;52.512;13.450;2022-07-29T13:22:07;30.60;61.20
50556;DHT22;36508;52.512;13.450;2022-07-29T13:24:44;30.70;63.20
50556;DHT22;36508;52.512;13.450;2022-07-29T13:27:10;31.00;61.10
50556;DHT22;36508;52.512;13.450;2022-07-29T13:29:35;30.90;60.00
50556;DHT22;36508;52.512;13.450;2022-07-29T13:32:02;30.40;60.90
50556;DHT22;36508;52.512;13.450;2022-07-29T13:34:28;30.00;62.10
50556;DHT22;36508;52.512;13.450;2022-07-29T13:36:54;30.20;64.60
50556;DHT22;36508;52.512;13.450;2022-07-29T13:39:20;30.10;66.80
50556;DHT22;36508;52.512;13.450;2022-07-29T13:41:45;30.00;67.40
50556;DHT22;36508;52.512;13.450;2022-07-29T13:44:11;30.10;68.70
50556;DHT22;36508;52.512;13.450;2022-07-29T13:46:36;30.20;67.80
50556;DHT22;36508;52.512;13.450;2022-07-29T13:49:02;30.60;66.30
50556;DHT22;36508;52.512;13.450;2022-07-29T13:51:28;30.60;65.10
50556;DHT22;36508;52.512;13.450;2022-07-29T13:53:53;30.50;69.20
50556;DHT22;36508;52.512;13.450;2022-07-29T13:56:19;30.40;67.80
50556;DHT22;36508;52.512;13.450;2022-07-29T13:58:44;30.60;65.80
50556;DHT22;36508;52.512;13.450;2022-07-29T14:01:10;30.60;66.50
50556;DHT22;36508;52.512;13.450;2022-07-29T14:03:36;30.40;67.80
50556;DHT22;36508;52.512;13.450;2022-07-29T14:06:05;30.40;67.50
50556;DHT22;36508;52.512;13.450;2022-07-29T14:08:31;30.30;66.20
50556;DHT22;36508;52.512;13.450;2022-07-29T14:10:57;30.40;66.40
50556;DHT22;36508;52.512;13.450;2022-07-29T14:13:23;30.50;65.60
50556;DHT22;36508;52.512;13.450;2022-07-29T14:15:48;30.50;66.60
50556;DHT22;36508;52.512;13.450;2022-07-29T14:18:14;30.60;67.00
50556;DHT22;36508;52.512;13.450;2022-07-29T14:20:39;30.60;68.30
50556;DHT22;36508;52.512;13.450;2022-07-29T14:23:05;30.50;65.20
50556;DHT22;36508;52.512;13.450;2022-07-29T14:25:31;30.50;68.00
50556;DHT22;36508;52.512;13.450;2022-07-29T14:27:56;30.50;68.50
50556;DHT22;36508;52.512;13.450;2022-07-29T14:30:22;30.60;67.00
50556;DHT22;36508;52.512;13.450;2022-07-29T14:32:48;30.50;64.30
50556;DHT22;36508;52.512;13.450;2022-07-29T14:35:14;30.50;67.50
50556;DHT22;36508;52.512;13.450;2022-07-29T14:37:40;30.40;67.90
50556;DHT22;36508;52.512;13.450;2022-07-29T14:40:06;30.30;66.60
50556;DHT22;36508;52.512;13.450;2022-07-29T14:42:32;30.20;66.20
50556;DHT22;36508;52.512;13.450;2022-07-29T14:44:58;30.10;65.40
50556;DHT22;36508;52.512;13.450;2022-07-29T14:47:23;30.20;66.10
50556;DHT22;36508;52.512;13.450;2022-07-29T14:49:49;30.40;67.10
50556;DHT22;36508;52.512;13.450;2022-07-29T14:52:15;30.60;65.70
50556;DHT22;36508;52.512;13.450;2022-07-29T14:54:41;30.50;66.00
50556;DHT22;36508;52.512;13.450;2022-07-29T14:57:07;30.40;67.00
50556;DHT22;36508;52.512;13.450;2022-07-29T14:59:32;30.20;65.70
50556;DHT22;36508;52.512;13.450;2022-07-29T15:01:58;30.20;66.00
50556;DHT22;36508;52.512;13.450;2022-07-29T15:04:24;30.30;65.20
50556;DHT22;36508;52.512;13.450;2022-07-29T15:06:49;30.30;64.30
50556;DHT22;36508;52.512;13.450;2022-07-29T15:09:15;30.30;65.00
50556;DHT22;36508;52.512;13.450;2022-07-29T15:11:41;30.30;65.30
50556;DHT22;36508;52.512;13.450;2022-07-29T15:14:07;30.40;63.30
50556;DHT22;36508;52.512;13.450;2022-07-29T15:16:36;30.60;65.10
50556;DHT22;36508;52.512;13.450;2022-07-29T15:19:02;30.60;63.10
50556;DHT22;36508;52.512;13.450;2022-07-29T15:21:28;30.60;63.10
50556;DHT22;36508;52.512;13.450;2022-07-29T15:23:54;30.70;64.10
50556;DHT22;36508;52.512;13.450;2022-07-29T15:26:20;30.70;61.70
50556;DHT22;36508;52.512;13.450;2022-07-29T15:28:46;30.50;62.30
50556;DHT22;36508;52.512;13.450;2022-07-29T15:31:11;30.60;61.80
50556;DHT22;36508;52.512;13.450;2022-07-29T15:33:39;30.80;60.50
50556;DHT22;36508;52.512;13.450;2022-07-29T15:36:05;30.70;61.40
50556;DHT22;36508;52.512;13.450;2022-07-29T15:38:30;30.70;62.20
50556;DHT22;36508;52.512;13.450;2022-07-29T15:40:56;30.90;61.40
50556;DHT22;36508;52.512;13.450;2022-07-29T15:43:23;31.40;61.90
50556;DHT22;36508;52.512;13.450;2022-07-29T15:45:49;32.10;60.60
50556;DHT22;36508;52.512;13.450;2022-07-29T15:48:33;32.20;59.30
50556;DHT22;36508;52.512;13.450;2022-07-29T15:51:02;32.20;60.20
50556;DHT22;36508;52.512;13.450;2022-07-29T15:53:28;33.20;59.00
50556;DHT22;36508;52.512;13.450;2022-07-29T15:55:54;33.40;58.80
50556;DHT22;36508;52.512;13.450;2022-07-29T15:58:20;33.60;57.90
50556;DHT22;36508;52.512;13.450;2022-07-29T16:00:47;34.30;57.40
50556;DHT22;36508;52.512;13.450;2022-07-29T16:03:13;34.70;56.70
50556;DHT22;36508;52.512;13.450;2022-07-29T16:05:39;35.00;56.50
50556;DHT22;36508;52.512;13.450;2022-07-29T16:08:05;35.60;55.40
50556;DHT22;36508;52.512;13.450;2022-07-29T16:10:31;36.10;54.50
50556;DHT22;36508;52.512;13.450;2022-07-29T16:12:57;35.50;55.10